Atlantic Island — C4VM2 — position and weather

sailwx.info

Track history (hours):
 
Tides and Currents Weather Stations Pressure Air Temp Water Temp Dewpoint Dewpoint Depression Visibility Wind Speed Wind Dir Waves Ship Positions

Atlantic Island

Last reported at 2017-Mar-24 03:33 UTC. Time now 2017-Mar-24 04:19 UTC.
Position N 38°20' W 009°02'.

Length 95 m; draft 5.8 m.

Type: Cargo ship. MMSI: 210754000.

Date/timePositionNaut miles runAvg speedWind from/ knotsBaromVisibWave heightAir tempDewpointWater temp
2017-Mar-24 03:33N 38°20' W 009°02'1110.2
2017-Mar-24 02:28N 38°30' W 008°55'2 1.9
2017-Mar-24 01:13N 38°31' W 008°52'0 0.0
2017-Mar-24 00:31N 38°31' W 008°52'0 0.0
2017-Mar-23 07:24N 38°31' W 008°52'0 0.0
2017-Mar-22 15:24N 38°31' W 008°52'0 0.0
2017-Mar-22 13:24N 38°31' W 008°52'0 0.0
2017-Mar-22 12:06N 38°31' W 008°52'0 0.0
2017-Mar-22 11:30N 38°31' W 008°52'0 0.0
2017-Mar-22 07:30N 38°31' W 008°52'0 0.0
2017-Mar-22 06:12N 38°31' W 008°52'0 0.0
2017-Mar-22 05:12N 38°31' W 008°52'0 0.0
2017-Mar-22 04:30N 38°31' W 008°52'0 0.0
2017-Mar-22 03:24N 38°31' W 008°52'0 0.0
2017-Mar-22 02:24N 38°31' W 008°52'0 0.0
2017-Mar-22 00:12N 38°31' W 008°52'1 2.2
2017-Mar-21 23:33N 38°30' W 008°51'0 0.0
2017-Mar-21 09:26N 38°30' W 008°51'0 0.0
2017-Mar-21 06:32N 38°30' W 008°51'0 0.0
2017-Mar-21 02:25N 38°30' W 008°51'0 0.0
2017-Mar-21 00:07N 38°30' W 008°51'0 0.0
2017-Mar-20 21:25N 38°30' W 008°51'0 0.1
2017-Mar-20 15:25N 38°30' W 008°51'2 0.4
2017-Mar-20 09:31N 38°31' W 008°54'0 0.0
2017-Mar-20 06:07N 38°31' W 008°53'0 0.0
2017-Mar-20 02:28N 38°31' W 008°53'0 0.0
2017-Mar-19 22:13N 38°31' W 008°54'0 0.0
2017-Mar-19 21:19N 38°31' W 008°54'0 0.1
2017-Mar-19 19:12N 38°31' W 008°53'0 0.0
2017-Mar-19 18:27N 38°31' W 008°53'0 0.0
2017-Mar-19 17:33N 38°31' W 008°53'0 0.0
2017-Mar-19 16:30N 38°31' W 008°53'0 0.0
2017-Mar-19 15:24N 38°31' W 008°53'0 0.0
2017-Mar-19 14:33N 38°31' W 008°53'0 0.0
2017-Mar-19 13:33N 38°31' W 008°53'0 0.1
2017-Mar-19 12:33N 38°31' W 008°54'0 0.0
2017-Mar-19 11:33N 38°31' W 008°54'0 0.0
2017-Mar-19 10:33N 38°31' W 008°54'0 0.0
2017-Mar-19 09:30N 38°31' W 008°54'0 0.0
2017-Mar-19 08:33N 38°31' W 008°54'0 0.1
2017-Mar-19 07:30N 38°31' W 008°54'0 0.1
2017-Mar-19 06:33N 38°31' W 008°53'0 0.0
2017-Mar-19 05:30N 38°31' W 008°53'0 0.0
2017-Mar-19 04:33N 38°31' W 008°53'0 0.0
2017-Mar-19 03:30N 38°31' W 008°53'0 0.0
2017-Mar-19 02:33N 38°31' W 008°53'0 0.0
2017-Mar-19 01:33N 38°31' W 008°53'0 0.1
2017-Mar-19 00:33N 38°31' W 008°54'0 0.0
2017-Mar-18 23:30N 38°31' W 008°54'0 0.0
2017-Mar-18 22:27N 38°31' W 008°54'0 0.0
2017-Mar-18 21:15N 38°31' W 008°54'0 0.0
2017-Mar-18 20:33N 38°31' W 008°54'0 0.1
2017-Mar-18 19:09N 38°31' W 008°54'0 0.0
2017-Mar-18 17:24N 38°31' W 008°53'0 0.0
2017-Mar-18 16:27N 38°31' W 008°53'0 0.0
2017-Mar-18 13:24N 38°31' W 008°53'0 0.1
2017-Mar-18 12:27N 38°31' W 008°54'0 0.0
2017-Mar-18 09:15N 38°31' W 008°54'0 0.0
2017-Mar-18 08:32N 38°31' W 008°54'0 0.0
2017-Mar-18 07:29N 38°31' W 008°54'0 0.1
2017-Mar-18 06:23N 38°31' W 008°53'0 0.0
2017-Mar-18 05:29N 38°31' W 008°53'0 0.0
2017-Mar-18 04:32N 38°31' W 008°53'0 0.0
2017-Mar-18 03:32N 38°31' W 008°53'0 0.0
2017-Mar-18 02:32N 38°31' W 008°53'0 0.0
2017-Mar-18 01:32N 38°31' W 008°53'3 3.1
2017-Mar-18 00:34N 38°29' W 008°56'9 9.3
2017-Mar-17 23:33N 38°20' W 009°01'10 9.8
2017-Mar-17 22:34N 38°11' W 009°04'10 9.7
2017-Mar-17 21:34N 38°01' W 009°06'9 9.5
2017-Mar-17 20:33N 37°52' W 009°08'9 9.4
2017-Mar-17 19:34N 37°43' W 009°10'9 9.4
2017-Mar-17 18:34N 37°33' W 009°13'  
Track history (hours):
 
Tides and Currents Weather Stations Pressure Air Temp Water Temp Dewpoint Dewpoint Depression Visibility Wind Speed Wind Dir Waves Ship Positions

Atlantic Island

Last reported at 2017-Mar-24 03:33 UTC. Time now 2017-Mar-24 04:19 UTC.
Position N 38°20' W 009°02'.

Length 95 m; draft 5.8 m.

Type: Cargo ship. MMSI: 210754000.

Date/timePositionNaut miles runAvg speedWind from/ knotsBaromVisibWave heightAir tempDewpointWater temp
2017-Mar-24 03:33N 38°20' W 009°02'1110.2
2017-Mar-24 02:28N 38°30' W 008°55'2 1.9
2017-Mar-24 01:13N 38°31' W 008°52'0 0.0
2017-Mar-24 00:31N 38°31' W 008°52'0 0.0
2017-Mar-23 07:24N 38°31' W 008°52'0 0.0
2017-Mar-22 15:24N 38°31' W 008°52'0 0.0
2017-Mar-22 13:24N 38°31' W 008°52'0 0.0
2017-Mar-22 12:06N 38°31' W 008°52'0 0.0
2017-Mar-22 11:30N 38°31' W 008°52'0 0.0
2017-Mar-22 07:30N 38°31' W 008°52'0 0.0
2017-Mar-22 06:12N 38°31' W 008°52'0 0.0
2017-Mar-22 05:12N 38°31' W 008°52'0 0.0
2017-Mar-22 04:30N 38°31' W 008°52'0 0.0
2017-Mar-22 03:24N 38°31' W 008°52'0 0.0
2017-Mar-22 02:24N 38°31' W 008°52'0 0.0
2017-Mar-22 00:12N 38°31' W 008°52'1 2.2
2017-Mar-21 23:33N 38°30' W 008°51'0 0.0
2017-Mar-21 09:26N 38°30' W 008°51'0 0.0
2017-Mar-21 06:32N 38°30' W 008°51'0 0.0
2017-Mar-21 02:25N 38°30' W 008°51'0 0.0
2017-Mar-21 00:07N 38°30' W 008°51'0 0.0
2017-Mar-20 21:25N 38°30' W 008°51'0 0.1
2017-Mar-20 15:25N 38°30' W 008°51'2 0.4
2017-Mar-20 09:31N 38°31' W 008°54'0 0.0
2017-Mar-20 06:07N 38°31' W 008°53'0 0.0
2017-Mar-20 02:28N 38°31' W 008°53'0 0.0
2017-Mar-19 22:13N 38°31' W 008°54'0 0.0
2017-Mar-19 21:19N 38°31' W 008°54'0 0.1
2017-Mar-19 19:12N 38°31' W 008°53'0 0.0
2017-Mar-19 18:27N 38°31' W 008°53'0 0.0
2017-Mar-19 17:33N 38°31' W 008°53'0 0.0
2017-Mar-19 16:30N 38°31' W 008°53'0 0.0
2017-Mar-19 15:24N 38°31' W 008°53'0 0.0
2017-Mar-19 14:33N 38°31' W 008°53'0 0.0
2017-Mar-19 13:33N 38°31' W 008°53'0 0.1
2017-Mar-19 12:33N 38°31' W 008°54'0 0.0
2017-Mar-19 11:33N 38°31' W 008°54'0 0.0
2017-Mar-19 10:33N 38°31' W 008°54'0 0.0
2017-Mar-19 09:30N 38°31' W 008°54'0 0.0
2017-Mar-19 08:33N 38°31' W 008°54'0 0.1
2017-Mar-19 07:30N 38°31' W 008°54'0 0.1
2017-Mar-19 06:33N 38°31' W 008°53'0 0.0
2017-Mar-19 05:30N 38°31' W 008°53'0 0.0
2017-Mar-19 04:33N 38°31' W 008°53'0 0.0
2017-Mar-19 03:30N 38°31' W 008°53'0 0.0
2017-Mar-19 02:33N 38°31' W 008°53'0 0.0
2017-Mar-19 01:33N 38°31' W 008°53'0 0.1
2017-Mar-19 00:33N 38°31' W 008°54'0 0.0
2017-Mar-18 23:30N 38°31' W 008°54'0 0.0
2017-Mar-18 22:27N 38°31' W 008°54'0 0.0
2017-Mar-18 21:15N 38°31' W 008°54'0 0.0
2017-Mar-18 20:33N 38°31' W 008°54'0 0.1
2017-Mar-18 19:09N 38°31' W 008°54'0 0.0
2017-Mar-18 17:24N 38°31' W 008°53'0 0.0
2017-Mar-18 16:27N 38°31' W 008°53'0 0.0
2017-Mar-18 13:24N 38°31' W 008°53'0 0.1
2017-Mar-18 12:27N 38°31' W 008°54'0 0.0
2017-Mar-18 09:15N 38°31' W 008°54'0 0.0
2017-Mar-18 08:32N 38°31' W 008°54'0 0.0
2017-Mar-18 07:29N 38°31' W 008°54'0 0.1
2017-Mar-18 06:23N 38°31' W 008°53'0 0.0
2017-Mar-18 05:29N 38°31' W 008°53'0 0.0
2017-Mar-18 04:32N 38°31' W 008°53'0 0.0
2017-Mar-18 03:32N 38°31' W 008°53'0 0.0
2017-Mar-18 02:32N 38°31' W 008°53'0 0.0
2017-Mar-18 01:32N 38°31' W 008°53'3 3.1
2017-Mar-18 00:34N 38°29' W 008°56'9 9.3
2017-Mar-17 23:33N 38°20' W 009°01'10 9.8
2017-Mar-17 22:34N 38°11' W 009°04'10 9.7
2017-Mar-17 21:34N 38°01' W 009°06'9 9.5
2017-Mar-17 20:33N 37°52' W 009°08'9 9.4
2017-Mar-17 19:34N 37°43' W 009°10'9 9.4
2017-Mar-17 18:34N 37°33' W 009°13'  

Dump ship's entire track history